Time;durP1;ratioP1;P1;durP2;ratioP2;P2;SDS_P1;SDS_P2;PMS_P1;PMS_P2;Temp;Humidity;BMP_temperature;BMP_pressure;BME280_temperature;BME280_humidity;BME280_pressure;Samples;Min_cycle;Max_cycle;Signal;HPM_P1;HPM_P2
2022/05/05 00:00:12;;;;;;;7.63;3.67;;;;;;;6.52;100.00;93440.19;5054354;28;20049;-81
2022/05/05 00:02:39;;;;;;;7.18;4.20;;;;;;;6.66;100.00;93459.00;5054186;28;20049;-82
2022/05/05 00:05:07;;;;;;;5.75;3.45;;;;;;;6.59;100.00;93470.91;5053874;28;20507;-82
2022/05/05 00:07:35;;;;;;;6.47;4.10;;;;;;;6.49;100.00;93460.94;5054465;28;20045;-81
2022/05/05 00:14:23;;;;;;;6.30;4.35;;;;;;;6.43;100.00;93454.00;5053980;28;20056;-82
2022/05/05 00:15:33;;;;;;;6.78;4.20;;;;;;;6.46;100.00;93460.53;5053789;28;20175;-82
2022/05/05 00:18:01;;;;;;;6.28;4.25;;;;;;;6.40;100.00;93467.13;5051660;28;20053;-81
2022/05/05 00:20:27;;;;;;;4.80;3.60;;;;;;;6.25;100.00;93451.84;5049649;28;20048;-83
2022/05/05 00:22:56;;;;;;;5.15;3.97;;;;;;;6.33;100.00;93466.25;5052521;28;20049;-82
2022/05/05 00:25:22;;;;;;;5.60;4.25;;;;;;;6.14;100.00;93436.00;5052528;28;20063;-83
2022/05/05 00:27:49;;;;;;;5.95;4.28;;;;;;;6.28;100.00;93444.63;5069555;28;20110;-81
2022/05/05 00:30:16;;;;;;;6.78;4.22;;;;;;;6.40;100.00;93460.25;5068352;28;20502;-83
2022/05/05 00:32:43;;;;;;;6.07;4.20;;;;;;;6.38;100.00;93464.75;5070603;28;20101;-81
2022/05/05 00:35:10;;;;;;;6.13;3.22;;;;;;;6.28;100.00;93459.13;5070298;28;20049;-82
2022/05/05 00:37:37;;;;;;;3.75;2.90;;;;;;;6.14;100.00;93445.41;5069566;28;20048;-83
2022/05/05 00:40:07;;;;;;;5.07;3.30;;;;;;;6.17;100.00;93439.16;5064443;28;20052;-82
2022/05/05 00:42:35;;;;;;;5.63;3.50;;;;;;;6.26;100.00;93450.88;5049982;28;20045;-81
2022/05/05 00:45:02;;;;;;;5.32;3.10;;;;;;;6.27;100.00;93455.81;5052589;28;20048;-81
2022/05/05 00:47:29;;;;;;;5.22;3.20;;;;;;;6.23;100.00;93451.22;5053053;28;20041;-82
2022/05/05 00:49:59;;;;;;;4.38;3.08;;;;;;;6.29;100.00;93458.16;5053049;28;20057;-82
2022/05/05 00:52:26;;;;;;;5.15;3.33;;;;;;;6.30;100.00;93456.41;5053026;28;20512;-82
2022/05/05 00:54:53;;;;;;;4.45;2.95;;;;;;;6.22;100.00;93441.97;5052792;28;20049;-82
2022/05/05 00:57:21;;;;;;;7.63;4.90;;;;;;;6.22;100.00;93460.63;5052019;28;20118;-82
2022/05/05 00:59:49;;;;;;;9.40;4.63;;;;;;;6.18;100.00;93458.59;5052877;28;20044;-82
2022/05/05 01:02:17;;;;;;;7.60;4.25;;;;;;;6.12;100.00;93462.66;5051877;28;20052;-82
2022/05/05 01:04:46;;;;;;;10.00;4.47;;;;;;;6.09;100.00;93460.44;5052074;28;20045;-82
2022/05/05 01:07:14;;;;;;;7.93;4.88;;;;;;;6.03;100.00;93463.69;5052942;28;20438;-82
2022/05/05 01:09:41;;;;;;;9.63;4.40;;;;;;;6.04;100.00;93468.63;5052364;28;20049;-81
2022/05/05 01:12:09;;;;;;;8.73;4.80;;;;;;;5.86;100.00;93444.25;5052870;28;20573;-81
2022/05/05 01:14:38;;;;;;;7.15;5.13;;;;;;;5.91;100.00;93468.41;5052786;28;20491;-81
2022/05/05 01:17:06;;;;;;;7.97;5.07;;;;;;;5.84;100.00;93473.41;5052913;28;20191;-82
2022/05/05 01:19:36;;;;;;;7.57;3.60;;;;;;;5.68;100.00;93464.94;5052474;28;20110;-84
2022/05/05 01:22:06;;;;;;;5.70;3.30;;;;;;;5.48;100.00;93451.91;5051791;28;20523;-82
2022/05/05 01:30:01;;;;;;;6.90;3.45;;;;;;;5.60;100.00;93477.78;5051864;28;20147;-82
2022/05/05 01:32:31;;;;;;;6.03;3.78;;;;;;;5.55;100.00;93462.19;5052974;28;20412;-82
2022/05/05 01:34:58;;;;;;;6.80;3.70;;;;;;;5.59;100.00;93471.88;5052193;28;20454;-82
2022/05/05 01:37:26;;;;;;;6.20;4.13;;;;;;;5.58;100.00;93480.50;5052081;28;20052;-82
2022/05/05 01:39:53;;;;;;;7.47;3.83;;;;;;;5.54;100.00;93474.13;5051977;28;20044;-82
2022/05/05 01:42:20;;;;;;;8.15;6.78;;;;;;;5.41;100.00;93484.13;5052189;28;20049;-82
2022/05/05 01:44:47;;;;;;;7.45;5.35;;;;;;;5.25;100.00;93469.72;5051488;28;20103;-81
2022/05/05 01:47:14;;;;;;;10.73;6.00;;;;;;;5.31;100.00;93489.44;5051983;28;20045;-81
2022/05/05 01:49:43;;;;;;;6.47;4.78;;;;;;;5.27;100.00;93483.88;5052048;28;20037;-81
2022/05/05 01:52:10;;;;;;;8.43;5.47;;;;;;;5.33;100.00;93478.09;5051897;28;20049;-79
2022/05/05 01:54:39;;;;;;;7.63;4.47;;;;;;;5.33;100.00;93488.28;5052159;28;20041;-83
2022/05/05 01:57:06;;;;;;;7.72;4.75;;;;;;;5.34;100.00;93482.25;5051802;28;20388;-82
2022/05/05 01:59:33;;;;;;;7.32;5.07;;;;;;;5.44;100.00;93488.88;5051824;28;20049;-82
2022/05/05 02:02:00;;;;;;;5.38;3.67;;;;;;;5.48;100.00;93490.91;5052099;28;20071;-81
2022/05/05 02:04:27;;;;;;;6.30;3.92;;;;;;;5.42;100.00;93483.94;5051476;28;20041;-81
2022/05/05 02:06:54;;;;;;;6.20;3.97;;;;;;;5.45;100.00;93498.09;5051567;28;20400;-81
2022/05/05 02:09:20;;;;;;;5.57;3.30;;;;;;;5.42;100.00;93493.34;5051663;28;20048;-81
2022/05/05 02:11:49;;;;;;;6.47;3.50;;;;;;;5.39;100.00;93496.22;5050791;28;20055;-82
2022/05/05 02:14:16;;;;;;;6.90;3.83;;;;;;;5.29;100.00;93491.38;5051092;28;20045;-81
2022/05/05 02:16:44;;;;;;;7.97;4.55;;;;;;;5.16;100.00;93489.38;5050651;28;20056;-81
2022/05/05 02:19:11;;;;;;;6.65;4.35;;;;;;;5.13;100.00;93492.28;5051346;28;20056;-81
2022/05/05 02:21:38;;;;;;;6.55;3.83;;;;;;;5.17;100.00;93496.03;5051214;28;20056;-81
2022/05/05 02:24:05;;;;;;;7.13;4.57;;;;;;;5.07;100.00;93486.09;5050789;28;20135;-81
2022/05/05 02:26:32;;;;;;;5.78;4.00;;;;;;;5.10;100.00;93505.34;5051210;28;20126;-84
2022/05/05 02:29:02;;;;;;;7.07;4.30;;;;;;;5.03;100.00;93493.28;5050611;28;20055;-81
2022/05/05 02:31:28;;;;;;;7.32;4.20;;;;;;;5.01;100.00;93502.03;5050605;28;20487;-82
2022/05/05 02:33:55;;;;;;;6.78;3.45;;;;;;;4.95;100.00;93493.31;5050653;28;20049;-81
2022/05/05 02:39:06;;;;;;;6.70;3.63;;;;;;;4.86;100.00;93486.69;5051057;28;20061;-81
2022/05/05 02:41:33;;;;;;;6.57;3.80;;;;;;;4.85;100.00;93483.34;5031586;28;20060;-81
2022/05/05 02:44:01;;;;;;;7.45;4.05;;;;;;;4.92;100.00;93506.38;5031496;28;20051;-82
2022/05/05 02:46:28;;;;;;;6.38;4.13;;;;;;;4.99;100.00;93506.53;5030742;28;20119;-82
2022/05/05 02:48:55;;;;;;;6.18;3.40;;;;;;;4.97;100.00;93518.59;5031054;28;20049;-82
2022/05/05 02:51:22;;;;;;;7.88;3.70;;;;;;;4.94;100.00;93510.34;5030890;28;20100;-82
2022/05/05 02:56:33;;;;;;;5.07;3.35;;;;;;;4.86;100.00;93515.47;5031216;28;20518;-82
2022/05/05 02:59:01;;;;;;;6.45;3.13;;;;;;;4.75;100.00;93515.84;5030547;28;20082;-82
2022/05/05 03:01:27;;;;;;;7.30;3.88;;;;;;;4.71;100.00;93510.28;5030406;28;20100;-83
2022/05/05 03:03:54;;;;;;;6.38;3.70;;;;;;;4.68;100.00;93515.72;5029930;28;20061;-83
2022/05/05 03:06:21;;;;;;;6.35;3.20;;;;;;;4.68;100.00;93506.31;5030295;28;20056;-82
2022/05/05 03:08:48;;;;;;;7.50;4.97;;;;;;;4.72;100.00;93521.28;5030463;28;20492;-81
2022/05/05 03:11:15;;;;;;;5.43;3.80;;;;;;;4.65;100.00;93524.47;5030725;28;20076;-77
2022/05/05 03:13:42;;;;;;;7.35;3.42;;;;;;;4.60;100.00;93523.38;5030403;28;20048;-82
2022/05/05 03:16:10;;;;;;;8.77;4.05;;;;;;;4.55;100.00;93516.25;5030508;28;20053;-81
2022/05/05 03:18:40;;;;;;;6.10;3.33;;;;;;;4.48;100.00;93508.47;5029324;28;20050;-79
2022/05/05 03:21:07;;;;;;;8.65;4.05;;;;;;;4.51;100.00;93510.69;5028069;28;20045;-82
2022/05/05 03:23:34;;;;;;;6.53;3.95;;;;;;;4.46;100.00;93527.41;5028243;28;20053;-82
2022/05/05 03:26:00;;;;;;;6.05;4.07;;;;;;;4.42;100.00;93519.31;5033140;28;20407;-82
2022/05/05 03:28:27;;;;;;;8.18;5.35;;;;;;;4.41;100.00;93526.13;5041209;28;20496;-82
2022/05/05 03:30:54;;;;;;;10.18;5.43;;;;;;;4.48;100.00;93528.03;5044658;28;20041;-82
2022/05/05 03:33:22;;;;;;;7.65;4.95;;;;;;;4.51;100.00;93523.41;5042023;28;20045;-82
2022/05/05 03:35:49;;;;;;;8.52;4.82;;;;;;;4.59;100.00;93526.88;5045515;28;20484;-82
2022/05/05 03:38:16;;;;;;;6.75;3.50;;;;;;;4.63;100.00;93523.06;5043480;28;20435;-82
2022/05/05 03:40:45;;;;;;;7.55;3.75;;;;;;;4.62;100.00;93527.34;5044075;28;20061;-82
2022/05/05 03:43:11;;;;;;;7.63;3.70;;;;;;;4.63;100.00;93523.06;5045190;28;20041;-82
2022/05/05 03:45:38;;;;;;;6.45;4.05;;;;;;;4.67;100.00;93531.94;5043851;28;20041;-82
2022/05/05 03:48:06;;;;;;;7.78;4.90;;;;;;;4.67;100.00;93535.28;5043485;28;20475;-82
2022/05/05 03:50:34;;;;;;;8.50;4.38;;;;;;;4.70;100.00;93530.81;5045245;28;20045;-82
2022/05/05 03:53:01;;;;;;;8.15;4.20;;;;;;;4.74;100.00;93550.69;5044306;28;20106;-82
2022/05/05 03:55:29;;;;;;;12.65;5.53;;;;;;;4.73;100.00;93541.47;5043848;28;20056;-82
2022/05/05 03:57:56;;;;;;;9.30;6.35;;;;;;;4.71;100.00;93542.59;5041170;28;20061;-82
2022/05/05 04:00:23;;;;;;;10.32;6.28;;;;;;;4.70;100.00;93553.72;5044394;28;20438;-82
2022/05/05 04:03:30;;;;;;;9.70;5.68;;;;;;;4.54;100.00;93532.47;5045313;28;20044;-82
2022/05/05 04:05:38;;;;;;;9.57;5.35;;;;;;;4.61;100.00;93552.94;5041183;28;20247;-81
2022/05/05 04:08:06;;;;;;;8.15;5.15;;;;;;;4.63;100.00;93551.06;5043952;28;20415;-81
2022/05/05 04:10:33;;;;;;;8.13;4.88;;;;;;;4.70;100.00;93557.06;5045370;28;20053;-81
2022/05/05 04:12:59;;;;;;;10.73;6.18;;;;;;;4.71;100.00;93555.31;5044228;28;20440;-82
2022/05/05 04:15:26;;;;;;;9.55;6.40;;;;;;;4.60;100.00;93538.66;5044191;28;20053;-82
2022/05/05 04:17:53;;;;;;;19.20;11.55;;;;;;;4.74;100.00;93560.88;5037258;28;20049;-82
2022/05/05 04:20:20;;;;;;;11.55;7.97;;;;;;;4.59;100.00;93550.59;5044947;28;20045;-81
2022/05/05 04:22:49;;;;;;;11.85;6.60;;;;;;;4.60;100.00;93564.09;5045537;28;20404;-81
2022/05/05 04:25:17;;;;;;;10.82;6.90;;;;;;;4.68;100.00;93564.84;5042020;28;20058;-81
2022/05/05 04:27:45;;;;;;;9.52;6.93;;;;;;;4.82;100.00;93555.72;5044514;28;20127;-82
2022/05/05 04:30:14;;;;;;;11.80;7.57;;;;;;;5.05;100.00;93569.50;5045937;28;20080;-82
2022/05/05 04:32:42;;;;;;;11.20;7.30;;;;;;;5.15;100.00;93557.34;5044837;28;20053;-81
2022/05/05 04:35:09;;;;;;;21.25;10.20;;;;;;;5.43;100.00;93572.16;5044168;28;20044;-82
2022/05/05 04:37:36;;;;;;;25.67;11.95;;;;;;;5.60;100.00;93564.41;5045491;28;20434;-82
2022/05/05 04:40:05;;;;;;;30.38;14.10;;;;;;;5.78;100.00;93563.34;5041396;28;20052;-82
2022/05/05 04:42:32;;;;;;;28.35;12.75;;;;;;;5.95;100.00;93566.53;5040692;28;20091;-82
2022/05/05 04:44:59;;;;;;;24.13;9.85;;;;;;;6.11;100.00;93560.53;5042249;28;20048;-81
2022/05/05 04:47:26;;;;;;;21.13;10.18;;;;;;;6.30;100.00;93561.81;5043264;28;20492;-81
2022/05/05 04:49:56;;;;;;;17.60;8.60;;;;;;;6.24;100.00;93542.88;5040568;28;20038;-81
2022/05/05 04:52:24;;;;;;;13.77;7.85;;;;;;;6.58;100.00;93566.31;5041366;28;20052;-82
2022/05/05 04:54:51;;;;;;;16.15;8.73;;;;;;;6.77;100.00;93569.31;5042332;28;20045;-82
2022/05/05 04:57:19;;;;;;;13.25;8.60;;;;;;;6.95;100.00;93579.16;5041040;28;20041;-82
2022/05/05 04:59:46;;;;;;;13.73;7.70;;;;;;;7.07;100.00;93566.72;5041136;28;20052;-82
2022/05/05 05:02:13;;;;;;;12.20;7.57;;;;;;;7.25;100.00;93568.88;5046009;28;20068;-82
2022/05/05 05:04:40;;;;;;;14.30;8.77;;;;;;;7.47;100.00;93571.47;5052412;28;20049;-82
2022/05/05 05:07:06;;;;;;;16.75;8.85;;;;;;;7.66;100.00;93574.41;5044480;28;20416;-82
2022/05/05 05:09:34;;;;;;;25.83;12.88;;;;;;;7.77;100.00;93571.34;5032712;28;20053;-82
2022/05/05 05:12:01;;;;;;;23.23;10.63;;;;;;;7.77;100.00;93576.47;5032383;28;20077;-83
2022/05/05 05:14:29;;;;;;;22.05;12.40;;;;;;;7.71;100.00;93566.97;5032421;28;20053;-82
2022/05/05 05:16:56;;;;;;;22.33;11.40;;;;;;;7.95;100.00;93577.78;5032333;28;20052;-83
2022/05/05 05:19:25;;;;;;;24.27;13.63;;;;;;;8.05;100.00;93562.94;5031989;28;20053;-82
2022/05/05 05:21:52;;;;;;;34.42;17.02;;;;;;;8.28;100.00;93582.38;5032022;28;20099;-83
2022/05/05 05:24:19;;;;;;;28.40;14.45;;;;;;;8.35;100.00;93575.56;5032437;28;20053;-83
2022/05/05 05:26:46;;;;;;;28.50;14.10;;;;;;;8.60;100.00;93590.50;5050158;28;20487;-82
2022/05/05 05:29:13;;;;;;;31.90;14.93;;;;;;;8.84;100.00;93582.56;5051969;28;20128;-83
2022/05/05 05:31:41;;;;;;;26.83;13.02;;;;;;;8.76;100.00;93586.06;5052059;28;20041;-83
2022/05/05 05:34:08;;;;;;;26.50;12.45;;;;;;;8.61;100.00;93586.19;5051960;28;20048;-85
2022/05/05 05:36:35;;;;;;;22.20;11.35;;;;;;;8.67;100.00;93583.66;5052163;28;20049;-84
2022/05/05 05:39:02;;;;;;;19.40;9.82;;;;;;;8.89;100.00;93586.13;5052146;28;20068;-84
2022/05/05 05:41:28;;;;;;;20.30;9.88;;;;;;;8.65;100.00;93572.00;5052241;28;20052;-83
2022/05/05 05:43:55;;;;;;;18.75;9.15;;;;;;;8.91;100.00;93591.88;5052157;28;20219;-84
2022/05/05 05:46:22;;;;;;;16.98;8.70;;;;;;;9.13;100.00;93593.53;5052081;28;20455;-83
2022/05/05 05:48:50;;;;;;;15.25;8.20;;;;;;;9.61;100.00;93590.16;5040768;28;20053;-83
2022/05/05 05:51:17;;;;;;;15.48;7.97;;;;;;;9.71;100.00;93593.13;5031604;28;20100;-83
2022/05/05 05:53:44;;;;;;;17.02;7.97;;;;;;;10.16;100.00;93592.59;5031934;28;20393;-84
2022/05/05 05:56:11;;;;;;;18.27;8.10;;;;;;;10.39;100.00;93593.19;5031974;28;20045;-84
2022/05/05 05:58:38;;;;;;;15.40;8.48;;;;;;;10.83;99.51;93590.97;5031672;28;20049;-83
2022/05/05 06:01:06;;;;;;;22.08;9.05;;;;;;;11.07;98.40;93606.75;5031627;28;20045;-83
2022/05/05 06:06:18;;;;;;;27.15;9.82;;;;;;;10.75;100.00;93598.91;5031627;28;20057;-84
2022/05/05 06:08:46;;;;;;;35.95;10.43;;;;;;;10.71;100.00;93595.94;5031575;28;20061;-84
2022/05/05 06:11:14;;;;;;;23.42;9.07;;;;;;;11.17;100.00;93580.59;5031481;28;20103;-85
2022/05/05 06:13:40;;;;;;;24.50;8.25;;;;;;;11.78;98.47;93593.94;5030441;28;20045;-85
2022/05/05 06:16:09;;;;;;;28.58;9.77;;;;;;;12.03;96.16;93601.72;5031449;28;20054;-85
2022/05/05 06:18:37;;;;;;;26.75;8.85;;;;;;;12.41;92.41;93604.44;5031331;28;20053;-85
2022/05/05 06:21:05;;;;;;;37.90;10.70;;;;;;;12.52;92.15;93596.03;5031140;28;20041;-85
2022/05/05 06:23:33;;;;;;;24.73;9.35;;;;;;;12.91;89.98;93598.44;5031386;28;20081;-85
2022/05/05 06:26:00;;;;;;;28.52;8.40;;;;;;;13.14;87.63;93591.84;5043136;28;20049;-84
2022/05/05 06:28:27;;;;;;;28.95;10.60;;;;;;;13.63;86.09;93588.50;5051078;28;20048;-85
2022/05/05 06:30:53;;;;;;;29.20;9.60;;;;;;;13.79;84.78;93576.00;5051103;28;20052;-85
2022/05/05 06:33:20;;;;;;;25.67;9.60;;;;;;;13.75;84.79;93589.34;5051181;28;20048;-84
2022/05/05 06:35:47;;;;;;;31.40;9.52;;;;;;;14.02;82.10;93596.72;5050939;28;20510;-84
2022/05/05 06:38:14;;;;;;;30.85;10.27;;;;;;;13.71;84.27;93592.59;5050907;28;20048;-84
2022/05/05 06:40:42;;;;;;;34.63;11.38;;;;;;;13.84;84.30;93594.97;5050933;28;20103;-84
2022/05/05 06:43:09;;;;;;;31.45;11.30;;;;;;;13.58;84.95;93596.91;5051155;28;20053;-84
2022/05/05 06:45:36;;;;;;;30.00;10.57;;;;;;;13.54;83.26;93588.03;5051179;28;20045;-84
2022/05/05 06:48:03;;;;;;;27.73;10.93;;;;;;;13.46;83.69;93599.44;5050922;28;20510;-84
2022/05/05 06:50:30;;;;;;;27.75;9.48;;;;;;;13.08;84.58;93598.66;5050750;28;20395;-84
2022/05/05 06:52:59;;;;;;;26.77;9.50;;;;;;;13.29;84.09;93588.88;5050792;28;20049;-84
2022/05/05 06:55:26;;;;;;;26.25;11.07;;;;;;;13.79;80.85;93596.66;5050597;28;20065;-84
2022/05/05 06:57:54;;;;;;;28.00;11.90;;;;;;;14.37;81.80;93571.94;5050535;28;20495;-84
2022/05/05 07:00:21;;;;;;;28.98;11.30;;;;;;;14.35;76.32;93575.75;5050618;28;20056;-84
2022/05/05 07:02:48;;;;;;;24.20;8.63;;;;;;;14.77;76.06;93593.00;5049894;28;20049;-85
2022/05/05 07:05:28;;;;;;;31.08;8.35;;;;;;;14.48;78.72;93596.22;5050093;28;20391;-84
2022/05/05 07:07:55;;;;;;;15.75;7.35;;;;;;;14.89;77.78;93592.97;5050060;28;20049;-85
2022/05/05 07:13:22;;;;;;;22.48;5.95;;;;;;;16.07;72.98;93598.03;4988713;28;20422;-84
2022/05/05 07:15:50;;;;;;;16.95;5.85;;;;;;;16.30;72.03;93594.53;4988591;28;20043;-85
2022/05/05 07:18:17;;;;;;;16.95;5.03;;;;;;;16.66;71.36;93574.28;5015956;28;20500;-85
2022/05/05 07:20:43;;;;;;;8.05;3.88;;;;;;;17.12;64.01;93604.50;5055361;28;20061;-85
2022/05/05 07:23:13;;;;;;;30.88;7.57;;;;;;;17.17;65.91;93586.38;5050163;28;20052;-86
2022/05/05 07:25:41;;;;;;;28.83;7.30;;;;;;;17.54;66.72;93594.59;5050718;28;20508;-85
2022/05/05 07:28:08;;;;;;;32.42;7.45;;;;;;;17.79;66.38;93590.69;5050388;28;20166;-83
2022/05/05 07:30:37;;;;;;;26.85;6.65;;;;;;;17.96;66.44;93582.81;5050253;28;20045;-84
2022/05/05 07:33:05;;;;;;;30.45;9.15;;;;;;;17.32;66.17;93578.00;5050028;28;20045;-86
2022/05/05 07:35:32;;;;;;;24.00;6.72;;;;;;;17.50;67.34;93587.28;5050270;28;20045;-85
2022/05/05 07:37:59;;;;;;;15.20;4.82;;;;;;;17.19;64.89;93591.34;5050322;28;20136;-85
2022/05/05 07:40:26;;;;;;;18.50;5.35;;;;;;;17.52;67.88;93566.25;5050197;28;20064;-84
2022/05/05 07:42:53;;;;;;;17.08;5.45;;;;;;;18.18;66.28;93587.19;5050316;28;20045;-84
2022/05/05 07:45:20;;;;;;;23.00;6.68;;;;;;;18.72;63.55;93598.47;5049638;28;20045;-86
2022/05/05 07:47:49;;;;;;;13.10;4.10;;;;;;;18.91;62.17;93598.84;5049814;28;20119;-85
2022/05/05 07:50:16;;;;;;;16.75;4.75;;;;;;;18.24;56.93;93568.75;5050088;28;20049;-85
2022/05/05 07:52:43;;;;;;;13.63;3.08;;;;;;;18.40;58.63;93593.06;5049809;28;20048;-85
2022/05/05 07:55:11;;;;;;;12.48;4.57;;;;;;;18.48;61.03;93570.22;5049813;28;20041;-85
2022/05/05 07:57:46;;;;;;;16.90;3.83;;;;;;;19.23;59.68;93598.78;5050150;28;20095;-85
2022/05/05 08:00:14;;;;;;;5.13;2.27;;;;;;;18.76;53.65;93597.72;5049741;28;20503;-85
2022/05/05 08:02:41;;;;;;;7.88;2.40;;;;;;;19.33;53.28;93599.84;5050001;28;20277;-86
2022/05/05 08:05:12;;;;;;;7.43;2.33;;;;;;;18.89;54.37;93591.28;5049953;28;20102;-85
2022/05/05 08:07:41;;;;;;;11.02;2.60;;;;;;;18.02;51.93;93592.97;5048722;28;20053;-85
2022/05/05 08:10:09;;;;;;;7.45;2.92;;;;;;;18.06;55.59;93595.09;4990300;28;20097;-85
2022/05/05 08:12:37;;;;;;;7.88;2.85;;;;;;;18.18;57.31;93572.34;4990361;28;20050;-86
2022/05/05 08:15:06;;;;;;;10.63;3.10;;;;;;;18.99;53.48;93595.78;4993760;28;20046;-84
2022/05/05 08:17:33;;;;;;;6.32;2.20;;;;;;;19.16;52.68;93585.19;4994115;28;20046;-85
2022/05/05 08:20:00;;;;;;;7.22;2.72;;;;;;;19.08;49.16;93599.47;4993983;28;20560;-85
2022/05/05 08:22:29;;;;;;;5.75;3.05;;;;;;;19.40;50.15;93602.22;4994229;28;20042;-85
2022/05/05 08:30:24;;;;;;;4.25;1.83;;;;;;;20.49;46.78;93569.28;4994081;28;20074;-84
2022/05/05 08:32:51;;;;;;;5.88;1.73;;;;;;;20.47;49.49;93581.81;4994204;28;20050;-84
2022/05/05 08:35:18;;;;;;;9.68;2.15;;;;;;;21.03;48.22;93577.56;4994080;28;20050;-83
2022/05/05 08:37:46;;;;;;;5.50;2.53;;;;;;;20.91;46.43;93580.47;4994018;28;20062;-84
2022/05/05 08:40:13;;;;;;;4.07;2.20;;;;;;;19.90;52.10;93576.53;4994056;28;20105;-85
2022/05/05 08:42:40;;;;;;;8.05;2.58;;;;;;;19.98;50.92;93578.69;4993933;28;20482;-84
2022/05/05 08:45:09;;;;;;;7.28;2.90;;;;;;;20.29;46.29;93573.47;4992988;28;20560;-84
2022/05/05 08:47:37;;;;;;;7.38;1.98;;;;;;;20.75;49.22;93564.03;4992913;28;20046;-86
2022/05/05 08:50:08;;;;;;;5.68;2.15;;;;;;;19.46;47.18;93588.97;5015906;28;20042;-83
2022/05/05 08:52:40;;;;;;;4.32;2.10;;;;;;;18.68;49.11;93567.75;5013536;28;20133;-81
2022/05/05 08:55:13;;;;;;;3.42;1.80;;;;;;;19.42;50.23;93571.50;5013513;28;20053;-84
2022/05/05 08:57:40;;;;;;;4.88;1.70;;;;;;;20.31;48.37;93575.81;5012991;28;20475;-84
2022/05/05 09:00:08;;;;;;;6.60;2.33;;;;;;;20.66;46.57;93573.44;5013042;28;20109;-83
2022/05/05 09:02:35;;;;;;;8.35;1.80;;;;;;;21.36;45.87;93582.41;5012906;28;20100;-83
2022/05/05 10:50:29;;;;;;;2.58;1.33;;;;;;;22.08;34.23;93556.94;5007766;28;20045;-85
2022/05/05 10:52:58;;;;;;;2.42;1.10;;;;;;;21.81;33.16;93555.56;4991753;28;20052;-83
2022/05/05 10:55:27;;;;;;;2.20;1.00;;;;;;;21.61;30.96;93557.97;4992116;28;20130;-81
2022/05/05 10:57:54;;;;;;;1.83;1.08;;;;;;;21.82;31.10;93557.09;4991939;28;20048;-83
2022/05/05 11:00:22;;;;;;;2.33;1.10;;;;;;;21.02;33.66;93559.56;4987654;28;20051;-83
2022/05/05 11:03:15;;;;;;;1.90;1.00;;;;;;;20.82;31.82;93568.97;4989899;28;20462;-83
2022/05/05 11:05:43;;;;;;;3.70;1.80;;;;;;;20.75;34.71;93560.63;4981805;28;20473;-78
2022/05/05 11:08:33;;;;;;;4.93;1.85;;;;;;;21.40;36.46;93572.19;4991825;28;20050;-83
2022/05/05 11:13:45;;;;;;;4.35;2.10;;;;;;;21.02;32.89;93562.94;4991417;28;20053;-81
2022/05/05 11:22:19;;;;;;;5.25;1.98;;;;;;;20.89;35.99;93553.84;4950638;29;20062;-84
2022/05/05 11:24:49;;;;;;;5.07;1.80;;;;;;;20.59;35.50;93565.13;4962634;28;20047;-80
2022/05/05 11:27:20;;;;;;;3.25;1.50;;;;;;;20.46;35.47;93569.81;4972126;28;20459;-83
2022/05/05 11:29:50;;;;;;;2.38;1.52;;;;;;;20.68;35.57;93560.91;4971668;28;20050;-81
2022/05/05 11:32:17;;;;;;;4.30;2.03;;;;;;;20.74;34.85;93540.81;4971778;28;20141;-83
2022/05/05 11:34:45;;;;;;;2.35;1.63;;;;;;;21.44;35.94;93547.88;4971897;28;20110;-78
2022/05/05 11:37:13;;;;;;;2.10;1.40;;;;;;;21.03;34.84;93554.06;4972118;28;20054;-79
2022/05/05 11:39:40;;;;;;;2.20;1.30;;;;;;;21.22;35.75;93551.66;4972082;28;20401;-80
2022/05/05 11:42:10;;;;;;;2.22;1.20;;;;;;;20.91;35.72;93546.53;4971942;28;20050;-83
2022/05/05 11:44:37;;;;;;;2.85;1.30;;;;;;;21.26;36.06;93553.72;4971763;28;20047;-81
2022/05/05 11:47:11;;;;;;;2.53;1.60;;;;;;;21.59;36.11;93549.66;4971754;28;20081;-82
2022/05/05 11:49:38;;;;;;;3.17;2.15;;;;;;;21.32;34.02;93544.81;4974478;28;20051;-82
2022/05/05 11:52:06;;;;;;;4.03;1.85;;;;;;;21.51;36.89;93531.91;4975741;28;20110;-82
2022/05/05 11:54:34;;;;;;;3.30;1.70;;;;;;;21.45;34.34;93528.56;4987558;28;20447;-81
2022/05/05 11:57:02;;;;;;;3.85;1.60;;;;;;;21.74;33.35;93529.69;4995218;28;20106;-82
2022/05/05 12:02:19;;;;;;;3.03;1.30;;;;;;;21.89;33.34;93526.97;4995123;28;20872;-86
2022/05/05 12:04:47;;;;;;;2.55;1.42;;;;;;;21.15;35.07;93516.41;4995010;28;20050;-80
2022/05/05 12:07:19;;;;;;;2.78;1.45;;;;;;;21.94;36.06;93518.31;4994972;28;20501;-81
2022/05/05 12:09:47;;;;;;;1.80;1.15;;;;;;;22.21;34.09;93524.16;4994810;28;20109;-78
2022/05/05 12:12:18;;;;;;;2.67;1.50;;;;;;;22.58;33.64;93508.91;4994719;28;20489;-82
2022/05/05 12:14:48;;;;;;;2.90;1.50;;;;;;;21.94;33.37;93528.78;4994334;28;20589;-84
2022/05/05 12:17:18;;;;;;;2.47;1.38;;;;;;;21.30;34.19;93524.16;4994876;28;20194;-81
2022/05/05 12:19:50;;;;;;;2.38;1.40;;;;;;;21.33;34.99;93521.03;4994496;28;20489;-80
2022/05/05 12:22:29;;;;;;;2.30;1.35;;;;;;;21.51;35.60;93520.69;4994595;28;20050;-82
2022/05/05 12:24:57;;;;;;;2.88;1.27;;;;;;;21.22;33.86;93514.28;4994795;28;20133;-82
2022/05/05 12:27:26;;;;;;;1.90;1.42;;;;;;;20.61;35.36;93527.28;4994173;28;20048;-85
2022/05/05 12:29:55;;;;;;;2.80;1.50;;;;;;;20.53;36.11;93525.97;4991811;28;20560;-82
2022/05/05 12:32:22;;;;;;;3.45;1.48;;;;;;;20.70;35.88;93524.91;4994654;28;20133;-80
2022/05/05 12:34:49;;;;;;;2.78;1.65;;;;;;;21.15;34.21;93521.66;4994612;28;20046;-82
2022/05/05 12:37:18;;;;;;;2.25;1.40;;;;;;;21.81;35.94;93514.50;4994527;28;20101;-81
2022/05/05 12:39:53;;;;;;;1.98;1.33;;;;;;;22.16;34.29;93523.13;4994412;28;20058;-81
2022/05/05 12:42:21;;;;;;;3.22;1.60;;;;;;;21.06;33.72;93526.66;4994813;28;20062;-80
2022/05/05 12:44:49;;;;;;;2.28;1.38;;;;;;;20.31;35.86;93486.38;4996177;28;20046;-82
2022/05/05 12:47:22;;;;;;;2.63;1.30;;;;;;;20.93;36.51;93507.88;4997181;28;20074;-81
2022/05/05 12:49:49;;;;;;;2.85;1.60;;;;;;;20.10;36.09;93507.25;4995668;28;20118;-81
2022/05/05 13:00:44;;;;;;;4.25;1.40;;;;;;;21.29;36.69;93499.09;5011879;28;20061;-80
2022/05/05 13:03:12;;;;;;;2.20;1.50;;;;;;;20.66;34.15;93495.94;5013584;28;20065;-83
2022/05/05 13:05:39;;;;;;;1.98;1.13;;;;;;;20.50;34.69;93504.84;5013456;28;20054;-80
2022/05/05 13:08:06;;;;;;;2.95;1.73;;;;;;;20.80;36.00;93496.16;5013522;28;20109;-82
2022/05/05 13:10:33;;;;;;;3.17;1.40;;;;;;;20.77;34.31;93501.09;5012984;28;20092;-82
2022/05/05 13:13:00;;;;;;;5.53;1.92;;;;;;;21.01;33.15;93503.16;5013120;28;20552;-83
2022/05/05 13:15:28;;;;;;;14.25;5.65;;;;;;;20.97;33.11;93487.25;5013231;28;20054;-83
2022/05/05 13:17:54;;;;;;;2.20;1.40;;;;;;;21.15;32.80;93504.13;5012944;28;20053;-83
2022/05/05 13:20:23;;;;;;;1.95;1.25;;;;;;;21.41;33.37;93497.97;5013081;28;20050;-83
2022/05/05 13:22:49;;;;;;;3.20;1.60;;;;;;;21.52;34.52;93496.09;5012933;28;20053;-84
2022/05/05 13:25:16;;;;;;;5.90;2.83;;;;;;;21.66;34.53;93496.28;5012921;28;20050;-81
2022/05/05 13:27:43;;;;;;;6.35;1.73;;;;;;;21.43;34.56;93480.97;5013147;28;20050;-82
2022/05/05 13:30:11;;;;;;;3.75;1.58;;;;;;;21.68;33.21;93497.56;5012843;28;20057;-81
2022/05/05 13:32:38;;;;;;;8.30;3.65;;;;;;;21.23;34.32;93495.75;5012823;28;20453;-82
2022/05/05 13:35:06;;;;;;;2.45;1.45;;;;;;;20.89;36.00;93498.22;5012865;28;20057;-82
2022/05/05 13:37:34;;;;;;;4.60;2.90;;;;;;;20.54;37.22;93501.44;5012606;28;20050;-81
2022/05/05 13:40:01;;;;;;;3.28;1.73;;;;;;;20.26;37.58;93490.53;5012627;28;20061;-75
2022/05/05 13:42:27;;;;;;;4.43;2.40;;;;;;;20.49;37.29;93511.09;5012604;28;20536;-82
2022/05/05 13:44:54;;;;;;;2.20;1.50;;;;;;;20.57;38.30;93500.13;5012371;28;20093;-80
2022/05/05 13:47:21;;;;;;;2.75;1.80;;;;;;;20.51;39.31;93504.56;5011884;28;20120;-81
2022/05/05 13:49:48;;;;;;;2.30;1.27;;;;;;;20.43;38.57;93500.66;5011689;28;20575;-82
2022/05/05 13:52:15;;;;;;;3.28;1.95;;;;;;;20.49;39.54;93496.22;5012726;28;20054;-82
2022/05/05 13:54:44;;;;;;;3.03;1.60;;;;;;;20.67;38.11;93501.94;5012614;28;20064;-82
2022/05/05 13:57:10;;;;;;;2.58;1.80;;;;;;;20.85;39.28;93502.38;5012370;28;20050;-84
2022/05/05 13:59:37;;;;;;;1.70;1.10;;;;;;;20.26;39.20;93490.53;5012455;28;20049;-85
2022/05/05 14:02:05;;;;;;;3.13;2.00;;;;;;;19.88;39.89;93490.00;5012298;28;20092;-81